Startpagina
METAR-TAF:

METAR-TAF

Vliegvelden :

Dubai International Airport

Dubai, Verenigde Arabische Emiraten

breedte: 25-15-10N, lengte: 055-21-52E, hoogte: 8 m

Actueel weer

Dit bericht is 36 minuten geleden gemaakt, om 12:00 UTC
Wind 11 kt uit het noorden
Temperatuur 30°C
Vochtigheid 55%
Druk 1016 hPa
Zicht 10 km of meer
geen wolken onder 1500 m en geen cumulonimbus

METAR: OMDB 161200Z 36011KT CAVOK 30/20 Q1016 NOSIG

Tijdstip: 16:36 (12:36 UTC)

Verwachting

Dit bericht is 1 uur en het 45 minuten geleden gemaakt, om 10:51 UTC
Verwachting geldig van 16 om 12 UTC tot 17 om 18 UTC
Wind 12 kt uit het noorden
Zicht: 8000 m
Wijzigt naar
van 16 om 14 UTC tot 16 om 16 UTC
Wind 5 kt uit het oosten
Wijzigt naar
van 17 om 06 UTC tot 17 om 08 UTC
Wind 12 kt uit het noordwesten
Wijzigt naar
van 17 om 16 UTC tot 17 om 18 UTC
Wind 6 kt uit het westzuidwesten

TAF: OMDB 161051Z 1612/1718 35012KT 8000 NSC BECMG 1614/1616 08005KT BECMG 1706/1708 32012KT BECMG 1716/1718 24006KT

Waarnemingen en weersverwachtingen van meer dan 4000 vliegvelden (METAR en TAF).

De beschikbare stations zijn de gele en rode punten op de kaart.

Ga met uw muis naar het station om de naam te zien.

Klik dan om waarnemingen en weersverwachtingen te zien.

kaart wijzigen: klik op de groene knoppen met een zwart kruis om in te zoomen, op de groene knop met een streepje om uit te zoomen of op de groene pijlen voor aangrenzende kaarten.


METAR-TAF: